Time;durP1;ratioP1;P1;durP2;ratioP2;P2;SDS_P1;SDS_P2;PMS_P1;PMS_P2;Temp;Humidity;BMP_temperature;BMP_pressure;BME280_temperature;BME280_humidity;BME280_pressure;Samples;Min_cycle;Max_cycle;Signal;HPM_P1;HPM_P2
2021/11/14 00:00:47;;;;;;;653.50;616.87;;;11.10;99.90;;;;;;4358896;32;20236;-64
2021/11/14 00:03:14;;;;;;;642.60;606.13;;;11.10;99.90;;;;;;4364632;32;20155;-64
2021/11/14 00:05:43;;;;;;;649.23;611.87;;;11.10;99.90;;;;;;4362072;33;20211;-63
2021/11/14 00:08:11;;;;;;;659.33;621.33;;;11.10;99.90;;;;;;4359863;33;20179;-63
2021/11/14 00:10:42;;;;;;;659.77;621.30;;;11.10;99.90;;;;;;4350549;33;20334;-64
2021/11/14 00:13:10;;;;;;;655.60;618.07;;;11.10;99.90;;;;;;4361472;32;20214;-63
2021/11/14 00:15:37;;;;;;;662.40;624.97;;;11.10;99.90;;;;;;4363445;32;20609;-64
2021/11/14 00:18:05;;;;;;;634.23;598.10;;;11.10;99.90;;;;;;4362524;33;20176;-64
2021/11/14 00:20:32;;;;;;;678.50;639.47;;;11.10;99.90;;;;;;4363040;32;20527;-64
2021/11/14 00:22:59;;;;;;;640.27;604.23;;;11.10;99.90;;;;;;4364279;32;20490;-64
2021/11/14 00:25:27;;;;;;;655.03;617.57;;;11.10;99.90;;;;;;4362106;33;20169;-64
2021/11/14 00:27:54;;;;;;;656.03;619.43;;;11.10;99.90;;;;;;4362288;32;20224;-64
2021/11/14 00:30:22;;;;;;;639.00;602.53;;;11.00;99.90;;;;;;4362384;33;20592;-64
2021/11/14 00:32:51;;;;;;;652.17;614.87;;;11.00;99.90;;;;;;4362073;33;20176;-64
2021/11/14 00:35:19;;;;;;;664.30;626.20;;;11.00;99.90;;;;;;4358046;32;20557;-65
2021/11/14 00:37:47;;;;;;;651.27;613.77;;;10.90;99.90;;;;;;4362222;32;20136;-64
2021/11/14 00:40:16;;;;;;;663.03;625.10;;;10.90;99.90;;;;;;4358822;32;20205;-64
2021/11/14 00:42:43;;;;;;;660.30;622.10;;;10.90;99.90;;;;;;4352226;32;20192;-63
2021/11/14 00:45:11;;;;;;;655.47;618.00;;;10.90;99.90;;;;;;4362123;33;20224;-63
2021/11/14 00:47:41;;;;;;;656.10;618.10;;;10.90;99.90;;;;;;4363238;32;20337;-64
2021/11/14 00:50:11;;;;;;;647.73;612.00;;;10.90;99.90;;;;;;4361977;33;20184;-64
2021/11/14 00:52:38;;;;;;;651.27;613.83;;;10.80;99.90;;;;;;4361821;32;20192;-63
2021/11/14 00:55:06;;;;;;;660.27;622.43;;;10.70;99.90;;;;;;4361973;32;20148;-64
2021/11/14 00:57:33;;;;;;;654.37;617.23;;;10.70;99.90;;;;;;4361988;32;20160;-64
2021/11/14 01:00:00;;;;;;;632.80;597.10;;;10.60;99.90;;;;;;4363818;32;20160;-63
2021/11/14 01:02:27;;;;;;;644.73;608.43;;;10.60;99.90;;;;;;4362290;32;20494;-64
2021/11/14 01:04:55;;;;;;;635.53;599.47;;;10.50;99.90;;;;;;4363621;32;20156;-64
2021/11/14 01:07:22;;;;;;;658.70;620.90;;;10.50;99.90;;;;;;4358991;32;20165;-63
2021/11/14 01:09:49;;;;;;;668.73;630.53;;;10.60;99.90;;;;;;4361816;32;20151;-62
2021/11/14 01:12:17;;;;;;;663.23;624.97;;;10.60;99.90;;;;;;4361848;33;20561;-63
2021/11/14 01:14:44;;;;;;;669.87;631.30;;;10.60;99.90;;;;;;4362733;32;20148;-62
2021/11/14 01:17:11;;;;;;;662.50;624.37;;;10.70;99.90;;;;;;4362249;32;20239;-63
2021/11/14 01:19:38;;;;;;;666.00;627.47;;;10.70;99.90;;;;;;4361525;33;20160;-62
2021/11/14 01:22:06;;;;;;;660.97;623.23;;;10.60;99.90;;;;;;4361629;33;20220;-62
2021/11/14 01:24:34;;;;;;;638.17;600.97;;;10.70;99.90;;;;;;4361753;32;20169;-62
2021/11/14 01:27:01;;;;;;;670.67;631.50;;;10.80;99.90;;;;;;4361890;32;20224;-62
2021/11/14 01:29:27;;;;;;;643.00;605.70;;;10.70;99.90;;;;;;4362757;32;20236;-63
2021/11/14 01:31:55;;;;;;;641.07;604.10;;;10.70;99.90;;;;;;4361359;33;20141;-62
2021/11/14 01:34:21;;;;;;;649.97;612.60;;;10.60;99.90;;;;;;4360419;33;20163;-63
2021/11/14 01:36:48;;;;;;;657.37;619.10;;;10.60;99.90;;;;;;4362604;32;20137;-62
2021/11/14 01:39:17;;;;;;;658.13;620.03;;;10.60;99.90;;;;;;4361648;32;20166;-62
2021/11/14 01:41:44;;;;;;;642.33;605.03;;;10.70;99.90;;;;;;4361323;33;20144;-62
2021/11/14 01:44:13;;;;;;;665.67;627.17;;;10.70;99.90;;;;;;4361213;33;20179;-63
2021/11/14 01:46:40;;;;;;;670.37;632.23;;;10.70;99.90;;;;;;4362018;32;20566;-62
2021/11/14 01:49:08;;;;;;;658.80;621.27;;;10.70;99.90;;;;;;4360634;33;20148;-62
2021/11/14 01:51:35;;;;;;;660.53;622.43;;;10.70;99.90;;;;;;4361393;32;20168;-62
2021/11/14 01:54:03;;;;;;;664.63;626.30;;;10.60;99.90;;;;;;4361442;32;20162;-62
2021/11/14 01:56:31;;;;;;;638.17;600.70;;;10.60;99.90;;;;;;4360541;32;20220;-62
2021/11/14 01:58:58;;;;;;;654.63;617.40;;;10.70;99.90;;;;;;4361143;33;20161;-63
2021/11/14 02:01:30;;;;;;;662.60;623.40;;;10.70;99.90;;;;;;4361235;33;20156;-62
2021/11/14 02:04:02;;;;;;;660.83;622.23;;;10.70;99.90;;;;;;4360383;32;20156;-61
2021/11/14 02:06:29;;;;;;;651.33;613.73;;;10.70;99.90;;;;;;4359684;32;20160;-63
2021/11/14 02:08:56;;;;;;;661.43;624.27;;;10.70;99.90;;;;;;4361044;33;20189;-62
2021/11/14 02:11:24;;;;;;;646.80;610.20;;;10.70;99.90;;;;;;4361586;32;20141;-62
2021/11/14 02:13:53;;;;;;;635.47;599.63;;;10.70;99.90;;;;;;4362508;32;20152;-62
2021/11/14 02:16:25;;;;;;;647.93;611.60;;;10.70;99.90;;;;;;4362696;32;20171;-62
2021/11/14 02:18:52;;;;;;;661.33;623.43;;;10.70;99.90;;;;;;4360866;33;20222;-62
2021/11/14 02:21:22;;;;;;;656.63;619.70;;;10.70;99.90;;;;;;4360652;32;20694;-62
2021/11/14 02:23:50;;;;;;;636.33;600.97;;;10.70;99.90;;;;;;4360061;33;20547;-64
2021/11/14 02:26:17;;;;;;;642.03;606.23;;;10.70;99.90;;;;;;4361053;32;20661;-62
2021/11/14 02:28:44;;;;;;;645.87;609.27;;;10.70;99.90;;;;;;4359889;33;20167;-62
2021/11/14 02:31:12;;;;;;;641.97;605.27;;;10.70;99.90;;;;;;4360551;32;20164;-62
2021/11/14 02:33:39;;;;;;;660.30;621.93;;;10.70;99.90;;;;;;4360635;33;20151;-62
2021/11/14 02:36:09;;;;;;;668.83;630.47;;;10.70;99.90;;;;;;4361618;32;20499;-62
2021/11/14 02:38:38;;;;;;;668.83;630.50;;;10.70;99.90;;;;;;4360811;33;20163;-61
2021/11/14 02:41:05;;;;;;;660.43;622.90;;;10.80;99.90;;;;;;4360765;33;20175;-62
2021/11/14 02:43:32;;;;;;;641.43;604.50;;;10.90;99.90;;;;;;4361089;32;20194;-63
2021/11/14 02:45:59;;;;;;;648.20;610.97;;;10.70;99.90;;;;;;4359351;33;20255;-62
2021/11/14 02:48:26;;;;;;;647.33;610.13;;;10.70;99.90;;;;;;4360836;32;20220;-62
2021/11/14 02:50:56;;;;;;;648.47;611.93;;;10.80;99.90;;;;;;4361834;32;20247;-62
2021/11/14 02:53:23;;;;;;;649.73;613.00;;;10.80;99.90;;;;;;4360036;33;20228;-62
2021/11/14 02:55:52;;;;;;;655.03;617.47;;;10.80;99.90;;;;;;4360583;33;20152;-61
2021/11/14 02:58:20;;;;;;;672.70;634.33;;;10.80;99.90;;;;;;4360401;33;20200;-62
2021/11/14 03:00:50;;;;;;;655.33;617.63;;;10.80;99.90;;;;;;4361841;32;20153;-62
2021/11/14 03:03:17;;;;;;;659.70;621.87;;;10.80;99.90;;;;;;4360795;32;20211;-63
2021/11/14 03:05:45;;;;;;;645.47;608.87;;;10.80;99.90;;;;;;4361480;33;20208;-61
2021/11/14 03:08:12;;;;;;;632.07;595.83;;;10.80;99.90;;;;;;4357125;33;20162;-62
2021/11/14 03:10:40;;;;;;;647.83;611.00;;;10.80;99.90;;;;;;4360565;33;20175;-62
2021/11/14 03:13:11;;;;;;;642.87;606.00;;;10.80;99.90;;;;;;4361308;33;20227;-62
2021/11/14 03:15:41;;;;;;;650.50;612.77;;;10.80;99.90;;;;;;4359910;33;20172;-62
2021/11/14 03:18:08;;;;;;;646.77;609.43;;;10.70;99.90;;;;;;4360406;33;20183;-61
2021/11/14 03:20:36;;;;;;;654.80;616.87;;;10.70;99.90;;;;;;4360363;33;20164;-62
2021/11/14 03:23:03;;;;;;;652.20;614.40;;;10.80;99.90;;;;;;4360474;33;20207;-62
2021/11/14 03:25:31;;;;;;;651.40;614.20;;;10.80;99.90;;;;;;4360414;33;20137;-62
2021/11/14 03:27:59;;;;;;;655.37;617.60;;;10.70;99.90;;;;;;4361786;33;20212;-61
2021/11/14 03:30:29;;;;;;;665.60;627.40;;;10.70;99.90;;;;;;4359871;33;20140;-62
2021/11/14 03:32:56;;;;;;;657.87;620.83;;;10.70;99.90;;;;;;4360583;33;20141;-62
2021/11/14 03:35:24;;;;;;;657.47;620.37;;;10.70;99.90;;;;;;4360227;33;20144;-63
2021/11/14 03:37:52;;;;;;;663.10;624.57;;;10.70;99.90;;;;;;4361136;33;20596;-62
2021/11/14 03:40:21;;;;;;;643.10;606.47;;;10.70;99.90;;;;;;4361985;33;20156;-62
2021/11/14 03:42:49;;;;;;;649.73;612.40;;;10.70;99.90;;;;;;4349887;33;20195;-62
2021/11/14 03:45:16;;;;;;;660.23;623.40;;;10.60;99.90;;;;;;4358920;33;20589;-61
2021/11/14 03:47:44;;;;;;;652.40;615.23;;;10.70;99.90;;;;;;4354201;33;20175;-61
2021/11/14 03:50:12;;;;;;;654.97;617.43;;;10.70;99.90;;;;;;4361419;33;20232;-63
2021/11/14 03:52:40;;;;;;;649.93;612.93;;;10.70;99.90;;;;;;4360136;33;20208;-61
2021/11/14 03:55:08;;;;;;;667.83;629.50;;;10.70;99.90;;;;;;4360222;33;20137;-62
2021/11/14 03:57:37;;;;;;;640.40;603.13;;;10.60;99.90;;;;;;4360106;33;20212;-62
2021/11/14 04:00:09;;;;;;;646.97;610.10;;;10.60;99.90;;;;;;4359598;33;20582;-62
2021/11/14 04:02:36;;;;;;;646.07;609.43;;;10.60;99.90;;;;;;4360391;33;20193;-62
2021/11/14 04:05:05;;;;;;;636.20;599.80;;;10.60;99.90;;;;;;4347052;33;20153;-62
2021/11/14 04:07:32;;;;;;;655.37;618.07;;;10.60;99.90;;;;;;4345232;33;20159;-61
2021/11/14 04:09:59;;;;;;;634.53;598.23;;;10.60;99.90;;;;;;4346208;33;20655;-62
2021/11/14 04:12:26;;;;;;;637.97;602.30;;;10.60;99.90;;;;;;4354715;33;20230;-61
2021/11/14 04:14:52;;;;;;;653.63;615.93;;;10.60;99.90;;;;;;4361521;32;20207;-62
2021/11/14 04:17:19;;;;;;;645.20;608.90;;;10.60;99.90;;;;;;4362563;32;20211;-62
2021/11/14 04:19:46;;;;;;;655.77;617.77;;;10.60;99.90;;;;;;4357076;33;20152;-63
2021/11/14 04:22:14;;;;;;;659.83;622.47;;;10.60;99.90;;;;;;4357448;33;20161;-62
2021/11/14 04:24:43;;;;;;;657.43;619.43;;;10.60;99.90;;;;;;4362685;32;20220;-61
2021/11/14 04:27:10;;;;;;;635.63;599.37;;;10.60;99.90;;;;;;4358543;32;20549;-62
2021/11/14 04:29:38;;;;;;;629.60;593.03;;;10.60;99.90;;;;;;4362576;33;20227;-62
2021/11/14 04:32:06;;;;;;;632.67;596.33;;;10.50;99.90;;;;;;4351367;32;20232;-61
2021/11/14 04:34:33;;;;;;;625.70;590.47;;;10.50;99.90;;;;;;4364159;32;20586;-62
2021/11/14 04:37:00;;;;;;;655.73;618.57;;;10.50;99.90;;;;;;4361682;32;20232;-61
2021/11/14 04:39:28;;;;;;;647.27;610.80;;;10.50;99.90;;;;;;4361969;32;20668;-62
2021/11/14 04:41:55;;;;;;;653.67;616.43;;;10.50;99.90;;;;;;4363036;32;20145;-61
2021/11/14 04:44:24;;;;;;;618.40;583.63;;;10.40;99.90;;;;;;4348442;33;20169;-61
2021/11/14 04:46:51;;;;;;;624.50;588.63;;;10.40;99.90;;;;;;4348149;33;20156;-61
2021/11/14 04:49:20;;;;;;;646.00;608.63;;;10.40;99.90;;;;;;4360009;32;20161;-62
2021/11/14 04:51:47;;;;;;;630.67;593.97;;;10.40;99.90;;;;;;4354816;32;20149;-61
2021/11/14 04:54:15;;;;;;;647.00;608.57;;;10.40;99.90;;;;;;4356075;33;20212;-62
2021/11/14 04:56:43;;;;;;;647.10;609.73;;;10.40;99.90;;;;;;4347711;33;20183;-62
2021/11/14 04:59:11;;;;;;;641.53;603.90;;;10.40;99.90;;;;;;4356499;33;20240;-62
2021/11/14 05:01:38;;;;;;;643.57;606.27;;;10.40;99.90;;;;;;4361368;33;20174;-62
2021/11/14 05:04:06;;;;;;;638.83;602.43;;;10.40;99.90;;;;;;4351543;33;20521;-61
2021/11/14 05:06:34;;;;;;;647.37;609.87;;;10.40;99.90;;;;;;4347839;33;20168;-61
2021/11/14 05:09:01;;;;;;;650.57;612.67;;;10.40;99.90;;;;;;4355115;33;20544;-61
2021/11/14 05:11:28;;;;;;;640.00;602.40;;;10.50;99.90;;;;;;4361451;33;20243;-62
2021/11/14 05:13:57;;;;;;;644.80;607.13;;;10.30;99.90;;;;;;4352894;32;20149;-62
2021/11/14 05:16:23;;;;;;;647.00;609.43;;;10.30;99.90;;;;;;4348505;33;20498;-61
2021/11/14 05:18:52;;;;;;;651.57;612.67;;;10.20;99.90;;;;;;4354169;33;20151;-62
2021/11/14 05:21:20;;;;;;;630.13;594.30;;;10.30;99.90;;;;;;4362988;32;20159;-62
2021/11/14 05:23:47;;;;;;;649.57;611.30;;;10.30;99.90;;;;;;4354108;32;20219;-61
2021/11/14 05:26:14;;;;;;;632.17;594.90;;;10.30;99.90;;;;;;4358175;32;20148;-62
2021/11/14 05:28:41;;;;;;;636.03;599.07;;;10.30;99.90;;;;;;4352101;33;20149;-62
2021/11/14 05:31:09;;;;;;;645.60;607.07;;;10.30;99.90;;;;;;4346794;33;20137;-61
2021/11/14 05:33:40;;;;;;;623.57;586.53;;;10.30;99.90;;;;;;4351912;33;20251;-62
2021/11/14 05:36:07;;;;;;;642.03;603.47;;;10.20;99.90;;;;;;4353482;33;20183;-63
2021/11/14 05:38:33;;;;;;;635.33;597.83;;;10.30;99.90;;;;;;4357438;32;20564;-61
2021/11/14 05:41:00;;;;;;;634.73;596.80;;;10.30;99.90;;;;;;4347426;33;20139;-61
2021/11/14 05:43:27;;;;;;;655.07;616.40;;;10.30;99.90;;;;;;4352505;33;20190;-61
2021/11/14 05:45:54;;;;;;;653.40;614.07;;;10.40;99.90;;;;;;4348035;33;20525;-61
2021/11/14 05:48:23;;;;;;;649.03;610.23;;;10.30;99.90;;;;;;4348346;33;20232;-62
2021/11/14 05:50:50;;;;;;;655.90;617.27;;;10.30;99.90;;;;;;4360439;32;20218;-62
2021/11/14 05:53:17;;;;;;;647.87;609.30;;;10.30;99.90;;;;;;4356408;32;20172;-62
2021/11/14 05:55:44;;;;;;;627.33;589.80;;;10.40;99.90;;;;;;4361872;32;20175;-61
2021/11/14 05:58:12;;;;;;;629.93;592.90;;;10.30;99.90;;;;;;4359273;33;20231;-63
2021/11/14 06:00:47;;;;;;;641.70;603.60;;;10.30;99.90;;;;;;4361043;32;20203;-61
2021/11/14 06:03:24;;;;;;;637.40;599.43;;;10.20;99.90;;;;;;4360679;33;20562;-61
2021/11/14 06:05:53;;;;;;;628.07;591.33;;;10.30;99.90;;;;;;4346066;33;20141;-62
2021/11/14 06:08:21;;;;;;;636.00;598.77;;;10.20;99.90;;;;;;4347329;33;20278;-63
2021/11/14 06:10:48;;;;;;;653.50;614.80;;;10.20;99.90;;;;;;4348244;32;20148;-61
2021/11/14 06:13:15;;;;;;;628.80;591.93;;;10.30;99.90;;;;;;4347366;33;20191;-61
2021/11/14 06:15:42;;;;;;;619.17;582.17;;;10.20;99.90;;;;;;4347764;33;20229;-60
2021/11/14 06:18:09;;;;;;;637.27;599.27;;;10.30;99.90;;;;;;4347317;33;20214;-61
2021/11/14 06:20:36;;;;;;;622.97;585.50;;;10.30;99.90;;;;;;4348812;32;20537;-62
2021/11/14 06:23:04;;;;;;;660.00;620.73;;;10.30;99.90;;;;;;4356895;33;20215;-61
2021/11/14 06:25:31;;;;;;;631.70;593.70;;;10.30;99.90;;;;;;4357374;33;20229;-62
2021/11/14 06:27:58;;;;;;;640.97;602.37;;;10.20;99.90;;;;;;4360927;32;20142;-61
2021/11/14 06:30:25;;;;;;;635.93;597.50;;;10.20;99.90;;;;;;4361062;32;20227;-62
2021/11/14 06:32:52;;;;;;;639.57;601.27;;;10.20;99.90;;;;;;4359760;33;20199;-61
2021/11/14 06:35:19;;;;;;;641.80;603.50;;;10.30;99.90;;;;;;4353373;32;20224;-61
2021/11/14 06:37:46;;;;;;;634.73;596.77;;;10.20;99.90;;;;;;4360188;32;20240;-61
2021/11/14 06:40:14;;;;;;;643.80;605.33;;;10.20;99.90;;;;;;4359456;33;20162;-62
2021/11/14 06:42:42;;;;;;;637.40;599.67;;;10.20;99.90;;;;;;4359086;32;20246;-61
2021/11/14 06:45:10;;;;;;;648.80;610.00;;;10.20;99.90;;;;;;4355833;32;20185;-61
2021/11/14 06:47:37;;;;;;;641.63;602.10;;;10.30;99.90;;;;;;4359261;32;20287;-62
2021/11/14 06:50:05;;;;;;;650.10;609.97;;;10.20;99.90;;;;;;4354427;32;20146;-64
2021/11/14 06:52:31;;;;;;;640.53;601.27;;;10.20;99.90;;;;;;4353517;32;20145;-61
2021/11/14 06:54:59;;;;;;;645.20;606.50;;;10.30;99.90;;;;;;4353956;32;20183;-62
2021/11/14 06:57:27;;;;;;;645.00;606.40;;;10.30;99.90;;;;;;4359005;32;20149;-61
2021/11/14 06:59:54;;;;;;;646.27;606.80;;;10.30;99.90;;;;;;4354692;32;20245;-62
2021/11/14 07:02:20;;;;;;;635.87;597.90;;;10.30;99.90;;;;;;4354801;33;20228;-64
2021/11/14 07:04:47;;;;;;;621.83;584.40;;;10.30;99.90;;;;;;4354248;33;20173;-62
2021/11/14 07:07:14;;;;;;;651.87;612.77;;;10.30;99.90;;;;;;4352144;33;20244;-61
2021/11/14 07:09:41;;;;;;;609.97;573.93;;;10.30;99.90;;;;;;4353508;32;20168;-61
2021/11/14 07:12:09;;;;;;;620.33;583.87;;;10.30;99.90;;;;;;4353600;33;20211;-62
2021/11/14 07:14:37;;;;;;;663.40;623.53;;;10.30;99.90;;;;;;4355664;33;20589;-63
2021/11/14 07:17:04;;;;;;;632.00;593.33;;;10.40;99.90;;;;;;4352738;33;20178;-61
2021/11/14 07:19:31;;;;;;;630.27;591.63;;;10.40;99.90;;;;;;4350744;33;20187;-62
2021/11/14 07:21:59;;;;;;;628.93;590.30;;;10.40;99.90;;;;;;4351321;33;20165;-61
2021/11/14 07:24:26;;;;;;;647.77;608.20;;;10.40;99.90;;;;;;4351002;33;20153;-61
2021/11/14 07:26:52;;;;;;;644.00;604.37;;;10.40;99.90;;;;;;4348411;33;20207;-61
2021/11/14 07:29:19;;;;;;;621.60;583.60;;;10.40;99.90;;;;;;4349746;33;20651;-62
2021/11/14 07:31:48;;;;;;;645.50;605.93;;;10.40;99.90;;;;;;4353341;33;20183;-61
2021/11/14 07:34:14;;;;;;;639.27;599.30;;;10.40;99.90;;;;;;4355204;33;20153;-61
2021/11/14 07:36:41;;;;;;;637.70;599.13;;;10.40;99.90;;;;;;4350279;33;20243;-62
2021/11/14 07:39:08;;;;;;;624.83;586.23;;;10.40;99.90;;;;;;4348777;33;20172;-62
2021/11/14 07:41:35;;;;;;;619.77;582.50;;;10.40;99.90;;;;;;4350234;33;20144;-60
2021/11/14 07:44:04;;;;;;;654.20;615.27;;;10.50;99.90;;;;;;4347269;33;20175;-62
2021/11/14 07:46:31;;;;;;;634.30;595.77;;;10.50;99.90;;;;;;4352154;33;20189;-62
2021/11/14 07:48:59;;;;;;;635.57;597.13;;;10.50;99.90;;;;;;4347988;33;20184;-62
2021/11/14 07:51:26;;;;;;;634.20;596.10;;;10.50;99.90;;;;;;4357539;32;20542;-61
2021/11/14 07:53:53;;;;;;;638.50;600.00;;;10.50;99.90;;;;;;4351707;32;20606;-62
2021/11/14 07:56:20;;;;;;;637.87;599.80;;;10.40;99.90;;;;;;4355829;33;20300;-61
2021/11/14 07:58:46;;;;;;;626.93;589.10;;;10.50;99.90;;;;;;4358950;32;20585;-62
2021/11/14 08:01:13;;;;;;;643.77;604.83;;;10.50;99.90;;;;;;4355435;33;20254;-62
2021/11/14 08:03:40;;;;;;;640.50;601.43;;;10.50;99.90;;;;;;4351476;32;20210;-63
2021/11/14 08:06:08;;;;;;;649.40;610.57;;;10.60;99.90;;;;;;4354264;33;20247;-63
2021/11/14 08:08:35;;;;;;;617.80;580.83;;;10.60;99.90;;;;;;4353107;33;20238;-62
2021/11/14 08:11:02;;;;;;;648.07;609.10;;;10.60;99.90;;;;;;4357593;33;20173;-63
2021/11/14 08:13:29;;;;;;;630.87;593.47;;;10.70;99.90;;;;;;4358412;33;20175;-64
2021/11/14 08:15:56;;;;;;;639.80;602.17;;;10.60;99.90;;;;;;4358099;32;20173;-63
2021/11/14 08:18:23;;;;;;;615.80;579.50;;;10.60;99.90;;;;;;4355380;33;20547;-61
2021/11/14 08:20:50;;;;;;;632.47;594.83;;;10.60;99.90;;;;;;4352813;32;20270;-61
2021/11/14 08:23:20;;;;;;;621.70;585.37;;;10.70;99.90;;;;;;4358455;32;20234;-63
2021/11/14 08:25:47;;;;;;;618.57;582.63;;;10.60;99.90;;;;;;4352140;32;20212;-62
2021/11/14 08:28:14;;;;;;;626.07;589.10;;;10.70;99.90;;;;;;4358388;32;20210;-62
2021/11/14 08:30:43;;;;;;;625.27;589.40;;;10.70;99.90;;;;;;4356007;32;20153;-62
2021/11/14 08:33:11;;;;;;;631.83;594.93;;;10.70;99.90;;;;;;4356640;33;20240;-63
2021/11/14 08:35:39;;;;;;;618.07;582.03;;;10.80;99.90;;;;;;4356154;32;20217;-63
2021/11/14 08:38:07;;;;;;;624.70;587.87;;;10.80;99.90;;;;;;4349194;33;20191;-62
2021/11/14 08:40:38;;;;;;;622.80;586.53;;;10.90;99.90;;;;;;4356673;33;20208;-63
2021/11/14 08:43:07;;;;;;;610.80;575.60;;;10.90;99.90;;;;;;4354498;33;20175;-62
2021/11/14 08:45:35;;;;;;;629.33;593.27;;;11.00;99.90;;;;;;4356785;32;20228;-64
2021/11/14 08:48:03;;;;;;;620.33;583.97;;;11.00;99.90;;;;;;4353388;32;20224;-62
2021/11/14 08:50:32;;;;;;;620.37;583.93;;;11.10;99.90;;;;;;4358116;32;21066;-62
2021/11/14 08:53:00;;;;;;;621.03;585.80;;;11.10;99.90;;;;;;4354680;33;20137;-63
2021/11/14 08:55:28;;;;;;;622.57;587.83;;;11.10;99.90;;;;;;4350267;33;20224;-62
2021/11/14 08:58:00;;;;;;;628.20;591.77;;;11.10;99.90;;;;;;4354375;32;20191;-62
2021/11/14 09:00:30;;;;;;;618.90;582.83;;;11.10;99.90;;;;;;4356539;32;20163;-64
2021/11/14 09:02:59;;;;;;;610.27;575.67;;;11.10;99.90;;;;;;4354418;32;20244;-63
2021/11/14 09:05:27;;;;;;;609.30;574.90;;;11.10;99.90;;;;;;4358392;32;20209;-64
2021/11/14 09:07:57;;;;;;;616.87;581.60;;;11.10;99.90;;;;;;4355160;33;20236;-65
2021/11/14 09:10:25;;;;;;;610.90;576.30;;;11.10;99.90;;;;;;4356198;32;20473;-62
2021/11/14 09:12:52;;;;;;;615.43;580.30;;;11.00;99.90;;;;;;4357808;32;20180;-63
2021/11/14 09:15:21;;;;;;;606.17;571.60;;;11.00;99.90;;;;;;4355333;33;20206;-64
2021/11/14 09:17:48;;;;;;;611.70;576.37;;;11.00;99.90;;;;;;4352990;32;20176;-64
2021/11/14 09:20:15;;;;;;;605.93;571.33;;;11.10;99.90;;;;;;4355477;32;20171;-64
2021/11/14 09:22:42;;;;;;;613.03;578.77;;;11.10;99.90;;;;;;4358294;32;20520;-63
2021/11/14 09:25:11;;;;;;;601.83;567.63;;;11.10;99.90;;;;;;4352295;32;20232;-63
2021/11/14 09:27:38;;;;;;;604.07;569.90;;;11.20;99.90;;;;;;4354886;32;20277;-64
2021/11/14 09:30:06;;;;;;;614.07;579.20;;;11.30;99.90;;;;;;4352362;33;20153;-64
2021/11/14 09:32:35;;;;;;;586.17;552.97;;;11.30;99.90;;;;;;4353975;33;20227;-65
2021/11/14 09:35:02;;;;;;;607.47;573.47;;;11.30;99.90;;;;;;4353937;32;20172;-63
2021/11/14 09:37:29;;;;;;;605.63;571.20;;;11.40;99.90;;;;;;4354598;33;21088;-64
2021/11/14 09:39:56;;;;;;;609.90;576.17;;;11.50;99.90;;;;;;4353006;32;20280;-65
2021/11/14 09:42:26;;;;;;;605.47;571.70;;;11.60;99.90;;;;;;4353179;32;20224;-62
2021/11/14 09:44:53;;;;;;;599.10;565.50;;;11.50;99.90;;;;;;4351321;33;20224;-62
2021/11/14 09:47:39;;;;;;;612.43;578.43;;;11.50;99.90;;;;;;4354045;33;20164;-62
2021/11/14 09:50:11;;;;;;;604.47;570.43;;;11.50;99.90;;;;;;4312476;33;20146;-63
2021/11/14 09:52:39;;;;;;;622.37;587.87;;;11.50;99.90;;;;;;4313924;33;20334;-63
2021/11/14 09:55:09;;;;;;;623.97;589.50;;;11.50;99.90;;;;;;4311533;33;20165;-64
2021/11/14 09:57:36;;;;;;;607.33;573.77;;;11.50;99.90;;;;;;4310662;33;20285;-65
2021/11/14 10:00:05;;;;;;;599.07;565.50;;;11.40;99.90;;;;;;4311003;33;20216;-64
2021/11/14 10:02:32;;;;;;;624.87;589.60;;;11.30;99.90;;;;;;4309956;33;20320;-64
2021/11/14 10:04:59;;;;;;;592.20;559.77;;;11.40;99.90;;;;;;4312648;33;20579;-64
2021/11/14 10:07:27;;;;;;;587.80;556.10;;;11.40;99.90;;;;;;4310932;33;20300;-64
2021/11/14 10:09:55;;;;;;;580.37;548.83;;;11.40;99.90;;;;;;4312087;33;20645;-64
2021/11/14 10:12:24;;;;;;;605.17;571.53;;;11.40;99.90;;;;;;4311291;33;20544;-65
2021/11/14 10:15:04;;;;;;;580.83;549.77;;;11.40;99.90;;;;;;4312691;33;20343;-63
2021/11/14 10:17:33;;;;;;;586.83;555.23;;;11.30;99.90;;;;;;4312133;33;20435;-63
2021/11/14 10:20:04;;;;;;;578.50;546.80;;;11.30;99.90;;;;;;4310977;33;20256;-64
2021/11/14 10:22:32;;;;;;;575.77;544.63;;;11.40;99.90;;;;;;4310056;33;20256;-64
2021/11/14 10:25:00;;;;;;;595.00;561.90;;;11.30;99.90;;;;;;4312733;33;20176;-64
2021/11/14 10:27:28;;;;;;;573.17;541.37;;;11.40;99.90;;;;;;4334572;33;20255;-62
2021/11/14 10:29:56;;;;;;;601.70;569.23;;;11.40;99.90;;;;;;4358520;33;20195;-64
2021/11/14 10:32:27;;;;;;;584.43;552.30;;;11.50;99.90;;;;;;4348170;33;20200;-64
2021/11/14 10:34:58;;;;;;;612.00;578.53;;;11.50;99.90;;;;;;4353909;32;20218;-64
2021/11/14 10:37:27;;;;;;;615.40;581.30;;;11.50;99.90;;;;;;4353590;33;20569;-64
2021/11/14 10:39:57;;;;;;;629.23;594.63;;;11.40;99.90;;;;;;4354033;33;20596;-63
2021/11/14 10:42:27;;;;;;;610.13;576.40;;;11.40;99.90;;;;;;4353734;33;20638;-63
2021/11/14 10:44:56;;;;;;;631.23;596.40;;;11.40;99.90;;;;;;4351395;33;20254;-63
2021/11/14 10:47:24;;;;;;;588.00;555.53;;;11.50;99.90;;;;;;4358509;32;20582;-63
2021/11/14 10:49:53;;;;;;;612.60;578.90;;;11.60;99.90;;;;;;4356482;32;20185;-63
2021/11/14 10:52:21;;;;;;;631.57;596.77;;;11.60;99.90;;;;;;4357941;32;20247;-64
2021/11/14 10:54:52;;;;;;;607.37;574.10;;;11.60;99.90;;;;;;4357392;32;20227;-64
2021/11/14 10:57:33;;;;;;;613.30;580.10;;;11.60;99.90;;;;;;4354232;32;20149;-63
2021/11/14 11:00:01;;;;;;;612.23;577.93;;;11.60;99.90;;;;;;4353772;32;20231;-62
2021/11/14 11:02:29;;;;;;;644.27;608.17;;;11.60;99.90;;;;;;4353539;33;20242;-62
2021/11/14 11:04:57;;;;;;;639.90;604.40;;;11.60;99.90;;;;;;4358383;32;20206;-64
2021/11/14 11:07:25;;;;;;;619.63;584.87;;;11.70;99.90;;;;;;4355715;32;20228;-63
2021/11/14 11:09:57;;;;;;;640.63;605.13;;;11.70;99.90;;;;;;4356370;33;20141;-62
2021/11/14 11:12:27;;;;;;;619.73;585.10;;;11.70;99.90;;;;;;4356125;32;20250;-62
2021/11/14 11:14:57;;;;;;;625.73;590.97;;;11.70;99.90;;;;;;4355939;33;20179;-63
2021/11/14 11:17:24;;;;;;;623.63;589.43;;;11.80;99.90;;;;;;4365736;32;20580;-62
2021/11/14 11:19:51;;;;;;;629.50;594.90;;;11.80;99.90;;;;;;4357590;32;20214;-62
2021/11/14 11:22:18;;;;;;;651.67;614.73;;;11.80;99.90;;;;;;4351064;33;20156;-63
2021/11/14 11:24:51;;;;;;;631.17;596.27;;;11.80;99.90;;;;;;4359838;32;20236;-62
2021/11/14 11:27:17;;;;;;;638.63;603.17;;;11.80;99.90;;;;;;4372989;32;20211;-63
2021/11/14 11:29:46;;;;;;;629.20;594.80;;;11.80;99.90;;;;;;4375884;32;20187;-64
2021/11/14 11:32:15;;;;;;;604.07;570.93;;;11.80;99.90;;;;;;4368433;32;20637;-62
2021/11/14 11:34:43;;;;;;;615.03;581.13;;;11.90;99.90;;;;;;4361761;33;20609;-62
2021/11/14 11:37:10;;;;;;;642.20;606.60;;;12.00;99.90;;;;;;4362706;32;20220;-62
2021/11/14 11:39:39;;;;;;;617.40;583.23;;;12.00;99.90;;;;;;4361909;32;20164;-63
2021/11/14 11:42:11;;;;;;;637.93;602.60;;;12.10;99.90;;;;;;4367312;32;20175;-63
2021/11/14 11:44:38;;;;;;;607.77;574.60;;;12.00;99.90;;;;;;4365359;32;20248;-63
2021/11/14 11:47:12;;;;;;;611.33;578.00;;;12.10;99.90;;;;;;4370454;32;20160;-63
2021/11/14 11:49:44;;;;;;;613.47;579.97;;;11.90;99.90;;;;;;4369249;32;20578;-63
2021/11/14 11:52:18;;;;;;;635.63;601.03;;;11.90;99.90;;;;;;4368699;32;20164;-62
2021/11/14 11:54:47;;;;;;;639.53;604.57;;;11.90;99.90;;;;;;4372163;32;20454;-64
2021/11/14 11:57:17;;;;;;;608.00;574.20;;;11.90;99.90;;;;;;4377854;32;20170;-64
2021/11/14 11:59:45;;;;;;;618.67;585.03;;;11.90;99.90;;;;;;4369917;32;20161;-64
2021/11/14 12:02:16;;;;;;;610.30;577.60;;;11.90;99.90;;;;;;4374635;32;20223;-62
2021/11/14 12:04:46;;;;;;;626.10;592.27;;;11.90;99.90;;;;;;4365930;32;20223;-62
2021/11/14 12:07:14;;;;;;;612.17;579.07;;;11.90;99.90;;;;;;4372268;32;20179;-62
2021/11/14 12:09:45;;;;;;;590.50;558.30;;;11.90;99.90;;;;;;4369760;32;20191;-62
2021/11/14 12:12:23;;;;;;;608.70;576.00;;;11.90;99.90;;;;;;4370485;32;20179;-61